Time;durP1;ratioP1;P1;durP2;ratioP2;P2;SDS_P1;SDS_P2;PMS_P1;PMS_P2;Temp;Humidity;BMP_temperature;BMP_pressure;BME280_temperature;BME280_humidity;BME280_pressure;Samples;Min_cycle;Max_cycle;Signal;HPM_P1;HPM_P2
2021/12/14 00:00:49;;;;;;;13.45;12.02;;;10.50;81.50;;;;;;4938406;28;96464;-72
2021/12/14 00:03:18;;;;;;;14.65;11.30;;;10.60;81.20;;;;;;4938513;28;89438;-70
2021/12/14 00:05:45;;;;;;;12.63;11.32;;;10.50;81.30;;;;;;4938155;28;89174;-69
2021/12/14 00:08:15;;;;;;;14.88;11.82;;;10.50;81.10;;;;;;4937731;28;89151;-70
2021/12/14 00:15:59;;;;;;;13.70;11.00;;;10.50;80.90;;;;;;4938389;28;89272;-70
2021/12/14 00:18:26;;;;;;;12.32;10.48;;;10.50;80.90;;;;;;4936380;28;89939;-69
2021/12/14 00:21:01;;;;;;;15.10;11.43;;;10.50;80.90;;;;;;4938046;28;88418;-69
2021/12/14 00:26:18;;;;;;;14.95;11.32;;;10.50;80.80;;;;;;4936552;28;90570;-69
2021/12/14 00:28:48;;;;;;;14.38;11.85;;;10.50;80.50;;;;;;4937900;28;88841;-70
2021/12/14 00:31:18;;;;;;;13.45;11.18;;;10.50;80.70;;;;;;4936380;28;89562;-70
2021/12/14 00:33:50;;;;;;;16.02;11.45;;;10.50;80.60;;;;;;4938123;28;88673;-70
2021/12/14 00:36:19;;;;;;;14.93;11.52;;;10.50;80.40;;;;;;4952787;28;91913;-70
2021/12/14 00:38:48;;;;;;;15.57;11.80;;;10.50;80.30;;;;;;4953123;28;88847;-70
2021/12/14 00:41:20;;;;;;;14.57;12.20;;;10.50;80.30;;;;;;4936609;28;89742;-69
2021/12/14 00:43:48;;;;;;;15.13;11.68;;;10.50;81.00;;;;;;4938115;28;88632;-69
2021/12/14 00:46:17;;;;;;;15.15;10.77;;;10.50;80.20;;;;;;4937726;28;89116;-70
2021/12/14 00:48:45;;;;;;;15.10;11.25;;;10.50;80.00;;;;;;4937626;28;88738;-70
2021/12/14 00:51:13;;;;;;;13.13;10.65;;;10.50;80.00;;;;;;4937681;28;88536;-69
2021/12/14 00:53:41;;;;;;;13.70;10.95;;;10.50;80.10;;;;;;4937629;28;88649;-69
2021/12/14 00:56:10;;;;;;;16.48;11.15;;;10.50;80.60;;;;;;4936249;28;90465;-70
2021/12/14 00:58:37;;;;;;;19.27;11.05;;;10.50;80.00;;;;;;4936448;28;89807;-69
2021/12/14 01:01:24;;;;;;;13.68;10.50;;;10.50;80.00;;;;;;4936026;28;90698;-70
2021/12/14 01:03:55;;;;;;;13.52;11.27;;;10.50;79.80;;;;;;4936434;28;91596;-69
2021/12/14 01:06:26;;;;;;;14.93;11.40;;;10.50;80.00;;;;;;4937619;28;89075;-70
2021/12/14 01:08:54;;;;;;;13.90;10.27;;;10.50;80.10;;;;;;4936230;28;90213;-70
2021/12/14 01:11:29;;;;;;;14.77;10.95;;;10.40;80.00;;;;;;4935866;28;89521;-69
2021/12/14 01:14:04;;;;;;;11.50;10.27;;;10.40;79.90;;;;;;4936033;28;89467;-69
2021/12/14 01:16:52;;;;;;;15.20;12.00;;;10.50;80.50;;;;;;4952444;28;91856;-70
2021/12/14 01:19:28;;;;;;;14.35;11.38;;;10.50;79.90;;;;;;4937654;28;91351;-70
2021/12/14 01:27:41;;;;;;;14.50;12.35;;;10.50;80.00;;;;;;4940830;28;89263;-72
2021/12/14 01:30:17;;;;;;;17.00;12.10;;;10.40;80.00;;;;;;4939137;28;91454;-73
2021/12/14 01:32:47;;;;;;;15.02;12.63;;;10.40;80.00;;;;;;4939623;28;90978;-70
2021/12/14 01:35:20;;;;;;;15.73;11.90;;;10.40;80.00;;;;;;4939056;28;91528;-70
2021/12/14 01:38:00;;;;;;;13.60;11.93;;;10.40;80.10;;;;;;4940835;28;89227;-70
2021/12/14 01:40:53;;;;;;;17.48;11.48;;;10.40;80.00;;;;;;4955308;28;91074;-70
2021/12/14 01:43:41;;;;;;;16.27;13.57;;;10.40;80.20;;;;;;4938973;28;90311;-70
2021/12/14 01:46:22;;;;;;;14.88;13.27;;;10.40;80.10;;;;;;4938892;28;89554;-70
2021/12/14 01:48:55;;;;;;;15.77;13.23;;;10.40;80.30;;;;;;4939141;28;91478;-70
2021/12/14 01:51:46;;;;;;;16.23;13.25;;;10.40;80.00;;;;;;4958053;28;88621;-70
2021/12/14 01:54:24;;;;;;;18.33;13.65;;;10.40;80.30;;;;;;4938739;28;90801;-70
2021/12/14 01:56:51;;;;;;;16.02;12.65;;;10.40;80.10;;;;;;4939085;28;91039;-70
2021/12/14 01:59:27;;;;;;;18.00;14.02;;;10.40;80.00;;;;;;4938765;28;90979;-70
2021/12/14 02:02:41;;;;;;;20.13;14.68;;;10.40;80.00;;;;;;4938841;28;91436;-72
2021/12/14 02:04:48;;;;;;;20.67;12.93;;;10.40;80.20;;;;;;4946668;28;89140;-72
2021/12/14 02:07:18;;;;;;;20.15;14.25;;;10.40;80.10;;;;;;4938530;28;91831;-72
2021/12/14 02:09:51;;;;;;;16.02;13.43;;;10.40;80.00;;;;;;4938676;28;90369;-72
2021/12/14 02:12:21;;;;;;;17.58;14.43;;;10.40;80.10;;;;;;4938998;28;88735;-72
2021/12/14 02:14:50;;;;;;;19.38;14.65;;;10.40;80.10;;;;;;4938635;28;90309;-72
2021/12/14 02:17:19;;;;;;;21.17;15.18;;;10.40;80.30;;;;;;4938468;28;89702;-72
2021/12/14 02:19:47;;;;;;;21.23;14.05;;;10.40;80.20;;;;;;4938704;28;91791;-69
2021/12/14 02:22:15;;;;;;;21.52;15.02;;;10.40;80.10;;;;;;4938105;28;88965;-72
2021/12/14 02:24:47;;;;;;;20.15;15.70;;;10.40;80.10;;;;;;4938929;28;90880;-72
2021/12/14 02:27:14;;;;;;;20.65;15.07;;;10.40;80.10;;;;;;4938313;28;89690;-72
2021/12/14 02:29:45;;;;;;;21.42;15.10;;;10.40;80.30;;;;;;4954189;28;91748;-72
2021/12/14 02:32:19;;;;;;;18.80;15.18;;;10.40;80.20;;;;;;4954199;28;90106;-72
2021/12/14 02:35:00;;;;;;;20.25;15.32;;;10.40;80.20;;;;;;4938610;28;89298;-72
2021/12/14 02:37:44;;;;;;;20.00;15.95;;;10.40;80.00;;;;;;4938092;28;90412;-72
2021/12/14 02:41:01;;;;;;;18.77;14.50;;;10.40;80.00;;;;;;4938260;28;90366;-72
2021/12/14 02:43:36;;;;;;;18.45;13.95;;;10.40;80.00;;;;;;4938012;28;91029;-72
2021/12/14 02:46:17;;;;;;;20.83;15.68;;;10.40;79.80;;;;;;4938530;28;90735;-72
2021/12/14 02:48:48;;;;;;;20.35;15.63;;;10.40;80.00;;;;;;4938175;28;91023;-72
2021/12/14 02:51:21;;;;;;;20.50;14.80;;;10.40;80.10;;;;;;4938201;28;91119;-72
2021/12/14 02:53:55;;;;;;;20.17;15.07;;;10.40;80.00;;;;;;4938176;28;88898;-70
2021/12/14 02:56:27;;;;;;;21.27;14.70;;;10.40;80.20;;;;;;4937923;28;90704;-70
2021/12/14 02:59:11;;;;;;;22.00;15.77;;;10.30;80.20;;;;;;4939077;28;90383;-72
2021/12/14 03:01:40;;;;;;;21.88;14.70;;;10.40;80.20;;;;;;4937719;28;91799;-70
2021/12/14 03:04:11;;;;;;;19.83;14.52;;;10.40;80.00;;;;;;4954284;28;91297;-70
2021/12/14 03:06:56;;;;;;;22.92;16.80;;;10.40;80.00;;;;;;4937603;28;90685;-70
2021/12/14 03:10:19;;;;;;;18.10;14.82;;;10.40;79.80;;;;;;4937662;28;92345;-70
2021/12/14 03:12:40;;;;;;;19.88;15.52;;;10.50;79.80;;;;;;4937521;28;90319;-70
2021/12/14 03:15:10;;;;;;;21.80;16.10;;;10.40;80.00;;;;;;4954372;28;88729;-70
2021/12/14 03:17:39;;;;;;;22.67;15.70;;;10.40;80.50;;;;;;4938905;28;89234;-70
2021/12/14 03:20:15;;;;;;;19.95;15.45;;;10.40;79.70;;;;;;4939076;28;88435;-70
2021/12/14 03:22:58;;;;;;;20.13;14.82;;;10.40;79.90;;;;;;4937584;28;90450;-69
2021/12/14 03:25:27;;;;;;;25.45;16.33;;;10.40;80.00;;;;;;4937298;28;90063;-70
2021/12/14 03:27:57;;;;;;;20.75;15.73;;;10.40;79.90;;;;;;4937439;28;90564;-70
2021/12/14 03:30:27;;;;;;;22.33;17.10;;;10.40;80.20;;;;;;4937151;28;89666;-70
2021/12/14 03:33:00;;;;;;;21.65;16.45;;;10.40;80.20;;;;;;4937528;28;91655;-70
2021/12/14 03:35:45;;;;;;;22.30;16.60;;;10.40;80.30;;;;;;4937330;28;91228;-72
2021/12/14 03:38:21;;;;;;;25.90;17.52;;;10.40;80.30;;;;;;4937268;28;90356;-73
2021/12/14 03:41:03;;;;;;;23.77;16.20;;;10.30;80.40;;;;;;4936894;28;91428;-69
2021/12/14 03:43:31;;;;;;;25.92;17.88;;;10.30;80.80;;;;;;4937298;28;89282;-69
2021/12/14 03:45:59;;;;;;;27.98;18.85;;;10.10;81.20;;;;;;4937410;28;90927;-70
2021/12/14 03:48:30;;;;;;;27.10;18.17;;;10.10;81.30;;;;;;4937121;28;90204;-72
2021/12/14 03:50:58;;;;;;;28.90;18.10;;;10.00;81.20;;;;;;4936818;28;91841;-73
2021/12/14 03:53:26;;;;;;;24.70;17.60;;;10.00;81.60;;;;;;4936922;28;90402;-72
2021/12/14 03:56:04;;;;;;;26.17;17.25;;;9.90;81.60;;;;;;4937080;28;91445;-72
2021/12/14 03:58:38;;;;;;;27.05;19.20;;;9.90;81.80;;;;;;4938466;28;88468;-72
2021/12/14 04:01:17;;;;;;;31.02;19.08;;;9.90;82.10;;;;;;4945072;28;91375;-74
2021/12/14 04:03:56;;;;;;;26.02;18.00;;;9.90;82.10;;;;;;4956575;28;91494;-73
2021/12/14 04:06:29;;;;;;;25.75;17.92;;;9.80;82.20;;;;;;4956088;28;91278;-73
2021/12/14 04:08:56;;;;;;;26.55;18.50;;;9.80;82.20;;;;;;4956713;28;90999;-73
2021/12/14 04:11:24;;;;;;;23.58;17.55;;;9.80;82.30;;;;;;4940167;28;91119;-73
2021/12/14 04:13:54;;;;;;;29.98;18.52;;;9.80;82.30;;;;;;4956402;28;91826;-71
2021/12/14 04:16:37;;;;;;;28.73;17.63;;;9.80;82.50;;;;;;4956176;28;91343;-71
2021/12/14 04:19:10;;;;;;;27.35;18.50;;;9.80;82.50;;;;;;4956365;28;89683;-71
2021/12/14 04:21:42;;;;;;;29.77;19.80;;;9.80;82.60;;;;;;4956149;28;89780;-73
2021/12/14 04:24:17;;;;;;;31.75;19.50;;;9.70;82.70;;;;;;4955767;28;91891;-73
2021/12/14 04:26:46;;;;;;;27.10;19.73;;;9.80;82.50;;;;;;4956163;28;91252;-73
2021/12/14 04:29:16;;;;;;;28.83;19.73;;;9.80;82.40;;;;;;4956221;28;90908;-73
2021/12/14 04:31:45;;;;;;;29.90;19.20;;;9.80;82.60;;;;;;4956014;28;91033;-73
2021/12/14 04:34:17;;;;;;;28.42;19.90;;;9.80;82.60;;;;;;4956318;28;91789;-73
2021/12/14 04:36:47;;;;;;;26.63;18.92;;;9.80;82.50;;;;;;4955916;28;91061;-73
2021/12/14 04:53:23;;;;;;;29.73;20.15;;;9.80;82.90;;;;;;4957512;28;89538;-71
2021/12/14 04:55:54;;;;;;;31.80;20.38;;;9.80;83.10;;;;;;4960814;28;89220;-71
2021/12/14 04:58:28;;;;;;;31.10;19.73;;;9.80;83.10;;;;;;4959537;28;91359;-71
2021/12/14 05:00:57;;;;;;;31.00;21.65;;;9.80;83.60;;;;;;4959658;28;89667;-73
2021/12/14 05:03:35;;;;;;;30.77;19.75;;;9.80;82.90;;;;;;4959342;28;91300;-73
2021/12/14 05:06:18;;;;;;;31.98;20.92;;;9.90;83.00;;;;;;4959263;28;91378;-73
2021/12/14 05:11:43;;;;;;;29.30;20.58;;;9.90;82.80;;;;;;4958940;28;90755;-73
2021/12/14 05:14:11;;;;;;;30.52;20.65;;;9.90;83.00;;;;;;4959180;28;89741;-73
2021/12/14 05:16:46;;;;;;;29.67;20.20;;;9.90;82.80;;;;;;4959181;28;91640;-73
2021/12/14 05:19:30;;;;;;;29.67;19.55;;;9.90;82.50;;;;;;4959146;28;90949;-73
2021/12/14 05:22:28;;;;;;;32.00;21.13;;;10.00;82.50;;;;;;4958827;28;90988;-71
2021/12/14 05:25:02;;;;;;;29.30;21.00;;;10.00;82.60;;;;;;4958412;28;91095;-70
2021/12/14 05:27:39;;;;;;;32.03;21.52;;;10.00;82.60;;;;;;4959208;28;91277;-72
2021/12/14 05:30:24;;;;;;;30.02;20.90;;;10.00;82.40;;;;;;4960594;28;88749;-71
2021/12/14 05:33:02;;;;;;;33.65;23.27;;;10.10;82.40;;;;;;4958230;28;90820;-71
2021/12/14 05:35:30;;;;;;;31.83;21.67;;;10.10;82.30;;;;;;4958641;28;91470;-71
2021/12/14 05:37:58;;;;;;;34.13;22.20;;;10.10;82.40;;;;;;4958737;28;91742;-71
2021/12/14 05:40:44;;;;;;;33.47;22.20;;;10.10;82.40;;;;;;4958811;28;91386;-73
2021/12/14 05:43:16;;;;;;;35.22;25.27;;;10.10;82.30;;;;;;4960157;28;88459;-73
2021/12/14 05:46:22;;;;;;;33.42;21.02;;;10.10;82.10;;;;;;4959094;28;89738;-73
2021/12/14 05:49:11;;;;;;;30.40;21.70;;;10.10;82.20;;;;;;4958443;28;90284;-73
2021/12/14 05:51:39;;;;;;;32.17;21.83;;;10.10;82.00;;;;;;4958144;28;91432;-73
2021/12/14 05:54:06;;;;;;;34.20;23.67;;;10.10;82.00;;;;;;4958740;28;90501;-73
2021/12/14 05:56:34;;;;;;;33.42;22.65;;;10.10;82.10;;;;;;4958645;28;91235;-73
2021/12/14 05:59:02;;;;;;;31.77;21.77;;;10.10;82.00;;;;;;4958370;28;91688;-73
2021/12/14 06:01:33;;;;;;;32.75;21.95;;;10.20;81.90;;;;;;4958246;28;91872;-73
2021/12/14 06:04:06;;;;;;;31.17;22.25;;;10.20;82.00;;;;;;4957548;28;91553;-70
2021/12/14 06:06:41;;;;;;;29.30;20.48;;;10.20;82.20;;;;;;4958159;28;90527;-70
2021/12/14 06:09:17;;;;;;;29.70;21.08;;;10.30;82.20;;;;;;4958333;28;91701;-71
2021/12/14 06:12:05;;;;;;;35.50;21.42;;;10.30;82.40;;;;;;4958092;28;91378;-70
2021/12/14 06:14:32;;;;;;;34.30;23.55;;;10.20;82.40;;;;;;4941922;28;90794;-73
2021/12/14 06:17:04;;;;;;;35.78;23.20;;;10.20;82.50;;;;;;4958027;28;91422;-73
2021/12/14 06:19:37;;;;;;;33.60;22.25;;;10.20;82.20;;;;;;4958285;28;91672;-73
2021/12/14 06:22:12;;;;;;;33.60;22.45;;;10.20;82.10;;;;;;4957672;28;90937;-73
2021/12/14 06:24:44;;;;;;;36.55;22.92;;;10.20;82.40;;;;;;4958213;28;91160;-73
2021/12/14 06:27:14;;;;;;;31.42;22.42;;;10.30;82.70;;;;;;4957589;28;90852;-73
2021/12/14 06:29:47;;;;;;;33.85;22.35;;;10.20;83.00;;;;;;4959580;28;89250;-73
2021/12/14 06:32:47;;;;;;;35.15;23.27;;;10.30;82.90;;;;;;4957963;28;91437;-73
2021/12/14 06:35:40;;;;;;;35.00;23.42;;;10.30;82.40;;;;;;4953495;28;88671;-73
2021/12/14 06:38:29;;;;;;;36.80;24.45;;;10.30;82.50;;;;;;4957763;28;90939;-73
2021/12/14 06:41:17;;;;;;;36.35;24.92;;;10.30;82.60;;;;;;4957625;28;91581;-73
2021/12/14 06:43:57;;;;;;;39.83;24.52;;;10.30;82.70;;;;;;4957349;28;90394;-74
2021/12/14 06:46:35;;;;;;;37.63;24.27;;;10.30;82.70;;;;;;4957987;28;90614;-73
2021/12/14 06:49:12;;;;;;;38.80;25.17;;;10.30;82.70;;;;;;4957579;28;90664;-73
2021/12/14 06:51:48;;;;;;;41.17;25.15;;;10.30;82.70;;;;;;4957527;28;90648;-70
2021/12/14 06:54:33;;;;;;;35.92;23.48;;;10.30;82.80;;;;;;4956749;28;88734;-70
2021/12/14 06:57:27;;;;;;;41.85;26.02;;;10.30;83.10;;;;;;4964516;28;88499;-70
2021/12/14 07:00:18;;;;;;;41.40;28.90;;;10.30;83.10;;;;;;4955509;28;88478;-70
2021/12/14 07:02:52;;;;;;;39.78;25.77;;;10.30;83.30;;;;;;4957195;28;91893;-70
2021/12/14 07:05:50;;;;;;;42.88;27.95;;;10.30;83.10;;;;;;4958704;28;89657;-70
2021/12/14 07:08:24;;;;;;;43.25;27.15;;;10.30;83.20;;;;;;4957361;28;91085;-70
2021/12/14 07:10:53;;;;;;;38.33;25.67;;;10.30;83.10;;;;;;4956963;28;94418;-70
2021/12/14 07:13:28;;;;;;;42.60;26.02;;;10.30;83.00;;;;;;4958714;28;89293;-70
2021/12/14 07:15:55;;;;;;;41.28;28.00;;;10.40;83.00;;;;;;4958660;28;88722;-72
2021/12/14 07:18:27;;;;;;;39.78;26.63;;;10.30;83.00;;;;;;4958646;28;88496;-73
2021/12/14 07:20:55;;;;;;;44.33;27.75;;;10.40;83.00;;;;;;4956817;28;89667;-72
2021/12/14 07:23:32;;;;;;;42.58;27.23;;;10.30;82.90;;;;;;4957675;28;89230;-70
2021/12/14 07:26:09;;;;;;;42.97;27.33;;;10.40;82.70;;;;;;4958386;28;90351;-70
2021/12/14 07:28:42;;;;;;;41.85;29.10;;;10.40;83.20;;;;;;4958512;28;88457;-70
2021/12/14 07:31:11;;;;;;;42.30;28.63;;;10.30;83.00;;;;;;4957111;28;88739;-70
2021/12/14 07:33:47;;;;;;;42.95;26.88;;;10.40;83.10;;;;;;4956814;28;90401;-73
2021/12/14 07:36:23;;;;;;;47.05;29.02;;;10.40;83.30;;;;;;4956948;28;91560;-73
2021/12/14 07:38:58;;;;;;;48.10;29.55;;;10.40;83.30;;;;;;4958704;28;88499;-70
2021/12/14 07:41:35;;;;;;;48.92;29.23;;;10.40;83.30;;;;;;4956875;28;88745;-70
2021/12/14 07:44:22;;;;;;;48.45;29.85;;;10.40;83.40;;;;;;4956332;28;91607;-70
2021/12/14 07:47:01;;;;;;;49.35;29.13;;;10.50;83.40;;;;;;4958128;28;88910;-70
2021/12/14 07:49:54;;;;;;;46.50;30.42;;;10.40;83.60;;;;;;4958414;28;88899;-70
2021/12/14 07:52:23;;;;;;;50.95;30.88;;;10.50;83.40;;;;;;4958021;28;88461;-70
2021/12/14 07:54:55;;;;;;;48.70;29.20;;;10.40;83.90;;;;;;4958162;28;89174;-70
2021/12/14 07:57:27;;;;;;;51.97;32.33;;;10.40;83.80;;;;;;4958258;28;88896;-70
2021/12/14 08:00:07;;;;;;;52.08;30.25;;;10.50;83.60;;;;;;4956601;28;88622;-70
2021/12/14 08:02:43;;;;;;;50.47;28.85;;;10.50;83.60;;;;;;4954875;28;93009;-70
2021/12/14 08:05:31;;;;;;;51.00;31.63;;;10.50;83.60;;;;;;4956141;28;92916;-70
2021/12/14 08:08:18;;;;;;;51.55;31.48;;;10.50;83.60;;;;;;4955783;28;92463;-69
2021/12/14 08:11:27;;;;;;;50.55;31.02;;;10.50;83.80;;;;;;4956034;28;92423;-69
2021/12/14 08:13:57;;;;;;;57.05;31.90;;;10.50;84.10;;;;;;4954495;28;95292;-69
2021/12/14 08:16:24;;;;;;;55.47;31.17;;;10.50;84.10;;;;;;4955832;28;95269;-69
2021/12/14 08:18:51;;;;;;;54.70;31.25;;;10.50;84.20;;;;;;4955843;28;92564;-69
2021/12/14 08:21:24;;;;;;;52.83;32.50;;;10.50;84.10;;;;;;4955551;28;92534;-69
2021/12/14 08:24:01;;;;;;;61.67;32.73;;;10.50;84.00;;;;;;4955167;28;92978;-69
2021/12/14 08:26:47;;;;;;;57.03;32.42;;;10.50;84.00;;;;;;4955797;28;93026;-72
2021/12/14 08:29:24;;;;;;;57.22;32.58;;;10.50;84.10;;;;;;4953768;28;92553;-72
2021/12/14 08:31:56;;;;;;;59.03;35.65;;;10.60;84.00;;;;;;4956173;28;92185;-72
2021/12/14 08:34:27;;;;;;;52.53;30.77;;;10.60;84.10;;;;;;4955382;28;96340;-72
2021/12/14 08:36:59;;;;;;;57.75;31.13;;;10.60;83.80;;;;;;4955602;28;93020;-72
2021/12/14 08:39:31;;;;;;;56.92;33.10;;;10.70;83.80;;;;;;4954575;28;94835;-73
2021/12/14 08:42:14;;;;;;;53.95;32.78;;;10.70;83.80;;;;;;4955690;28;92459;-72
2021/12/14 08:44:51;;;;;;;53.15;32.03;;;10.70;83.60;;;;;;4955320;28;93074;-72
2021/12/14 08:47:28;;;;;;;49.25;30.95;;;10.70;83.60;;;;;;4955310;28;92927;-72
2021/12/14 08:50:00;;;;;;;55.45;32.35;;;10.80;83.50;;;;;;4955560;28;92493;-72
2021/12/14 08:52:30;;;;;;;59.47;34.22;;;10.80;83.30;;;;;;4953825;28;92529;-72
2021/12/14 08:55:01;;;;;;;54.15;32.28;;;10.80;83.10;;;;;;4955069;28;93117;-72
2021/12/14 08:57:31;;;;;;;56.70;33.00;;;10.90;83.10;;;;;;4955611;28;92928;-73
2021/12/14 09:00:06;;;;;;;50.78;32.85;;;10.90;83.00;;;;;;4955165;28;92447;-72
2021/12/14 09:02:33;;;;;;;57.38;33.67;;;11.00;82.80;;;;;;4953878;28;92328;-72
2021/12/14 09:05:34;;;;;;;53.63;31.88;;;11.00;82.80;;;;;;4953794;28;96405;-72
2021/12/14 09:08:02;;;;;;;48.63;31.08;;;11.00;82.60;;;;;;4954211;28;95193;-72
2021/12/14 09:10:32;;;;;;;53.40;30.67;;;11.00;82.90;;;;;;4953782;28;92467;-72
2021/12/14 09:13:06;;;;;;;49.70;31.02;;;11.00;82.60;;;;;;4955262;28;92748;-72
2021/12/14 09:15:47;;;;;;;;;;;11.10;82.50;;;;;;4954102;28;94161;-72
2021/12/14 09:18:16;;;;;;;50.83;29.60;;;11.00;82.50;;;;;;4955194;28;93519;-72
2021/12/14 09:20:57;;;;;;;47.85;29.67;;;11.00;82.60;;;;;;4953656;28;92469;-69
2021/12/14 09:23:31;;;;;;;54.65;32.38;;;11.00;82.50;;;;;;4953885;28;92478;-69
2021/12/14 09:26:03;;;;;;;53.33;31.50;;;11.10;82.50;;;;;;4954921;28;93552;-69
2021/12/14 09:28:31;;;;;;;47.58;31.55;;;11.10;82.40;;;;;;4954867;28;93091;-69
2021/12/14 09:31:02;;;;;;;51.40;32.28;;;11.20;82.30;;;;;;4953646;28;94786;-69
2021/12/14 09:33:31;;;;;;;47.63;30.23;;;11.20;82.10;;;;;;4954760;28;92492;-69
2021/12/14 09:35:58;;;;;;;55.78;33.80;;;11.20;81.80;;;;;;4954782;28;92978;-69
2021/12/14 09:38:33;;;;;;;49.88;31.98;;;11.30;81.80;;;;;;4954464;28;92885;-69
2021/12/14 09:41:06;;;;;;;44.78;29.33;;;11.30;81.70;;;;;;4957322;28;92503;-72
2021/12/14 09:43:34;;;;;;;55.00;33.42;;;11.40;81.40;;;;;;4958366;28;92345;-69
2021/12/14 09:46:04;;;;;;;50.95;32.00;;;11.40;81.20;;;;;;4955953;28;111941;-69
2021/12/14 09:48:36;;;;;;;49.83;31.08;;;11.50;81.30;;;;;;4958205;28;92907;-69
2021/12/14 09:51:10;;;;;;;49.97;33.35;;;11.50;80.90;;;;;;4958193;28;92504;-69
2021/12/14 09:53:49;;;;;;;43.83;29.58;;;11.50;80.90;;;;;;4957990;28;92438;-69
2021/12/14 09:56:20;;;;;;;45.55;30.17;;;11.50;80.60;;;;;;4956336;28;98237;-69
2021/12/14 09:58:51;;;;;;;47.00;32.30;;;11.50;80.50;;;;;;4957904;28;95311;-69
2021/12/14 10:01:37;;;;;;;47.03;30.10;;;11.60;80.70;;;;;;4957846;28;92799;-69
2021/12/14 10:04:09;;;;;;;45.90;31.77;;;11.60;80.30;;;;;;4958151;28;92351;-69
2021/12/14 10:06:36;;;;;;;46.65;30.88;;;11.60;80.30;;;;;;4957817;28;92526;-69
2021/12/14 10:09:09;;;;;;;48.30;30.60;;;11.60;80.20;;;;;;4957580;28;92770;-69
2021/12/14 10:11:59;;;;;;;44.00;29.70;;;11.70;80.20;;;;;;4956593;28;92517;-69
2021/12/14 10:14:38;;;;;;;44.10;28.95;;;11.70;79.90;;;;;;4957570;28;91801;-72
2021/12/14 10:17:09;;;;;;;44.30;29.98;;;11.80;79.80;;;;;;4957464;28;92982;-72
2021/12/14 10:19:39;;;;;;;42.17;29.33;;;11.90;79.80;;;;;;4957745;28;93549;-72
2021/12/14 10:22:15;;;;;;;47.15;30.02;;;11.90;79.40;;;;;;4955817;28;94923;-71
2021/12/14 10:24:42;;;;;;;47.03;31.83;;;11.90;79.30;;;;;;4956044;28;92517;-72
2021/12/14 10:27:19;;;;;;;51.33;31.48;;;11.90;79.30;;;;;;4957289;28;93163;-72
2021/12/14 10:29:46;;;;;;;48.85;31.48;;;11.90;79.20;;;;;;4957267;28;92632;-72
2021/12/14 10:32:19;;;;;;;56.03;31.77;;;11.90;79.20;;;;;;4939554;28;92589;-72
2021/12/14 10:35:01;;;;;;;46.50;30.45;;;11.90;79.40;;;;;;4957426;28;92418;-72
2021/12/14 10:37:54;;;;;;;50.47;32.55;;;11.90;79.30;;;;;;4955816;28;93035;-72
2021/12/14 10:43:17;;;;;;;;;;;11.90;79.60;;;;;;4955831;28;92468;-69
2021/12/14 10:45:49;;;;;;;44.60;29.42;;;11.70;80.50;;;;;;4958763;28;92463;-69
2021/12/14 10:48:18;;;;;;;43.83;28.13;;;11.80;80.00;;;;;;4955413;28;95593;-69
2021/12/14 10:50:48;;;;;;;47.03;30.80;;;11.80;79.90;;;;;;4956219;28;101664;-70
2021/12/14 10:53:17;;;;;;;47.53;29.33;;;11.80;80.10;;;;;;4956969;28;92837;-69
2021/12/14 10:55:52;;;;;;;48.55;31.23;;;11.80;80.20;;;;;;4956870;28;92431;-69
2021/12/14 10:58:22;;;;;;;47.25;31.27;;;11.80;80.10;;;;;;4956822;28;93100;-69
2021/12/14 11:00:56;;;;;;;52.50;32.33;;;11.80;80.10;;;;;;4956590;28;92799;-69
2021/12/14 11:03:28;;;;;;;52.10;30.05;;;11.90;80.00;;;;;;4956823;28;92530;-69
2021/12/14 11:06:02;;;;;;;46.50;30.05;;;11.80;80.00;;;;;;4957521;28;92136;-69
2021/12/14 11:08:38;;;;;;;46.08;29.73;;;11.90;79.90;;;;;;4956212;28;92928;-69
2021/12/14 11:11:19;;;;;;;42.38;29.65;;;11.90;79.60;;;;;;4955759;28;92881;-69
2021/12/14 11:13:52;;;;;;;45.72;29.95;;;11.90;79.60;;;;;;4955783;28;94804;-69
2021/12/14 11:16:34;;;;;;;45.92;29.10;;;11.90;79.80;;;;;;4956733;28;92410;-69
2021/12/14 11:19:04;;;;;;;49.75;30.63;;;11.90;80.00;;;;;;4956840;28;92926;-70
2021/12/14 11:21:32;;;;;;;45.05;28.98;;;11.90;80.10;;;;;;4954943;28;94109;-69
2021/12/14 11:23:59;;;;;;;44.55;29.25;;;11.90;80.00;;;;;;4955845;28;103505;-69
2021/12/14 11:26:32;;;;;;;44.90;29.33;;;11.90;80.00;;;;;;4956465;28;92524;-69
2021/12/14 11:29:09;;;;;;;48.17;31.17;;;11.90;80.30;;;;;;4956464;28;93066;-69
2021/12/14 11:31:52;;;;;;;44.97;27.83;;;11.90;80.50;;;;;;4955574;28;93058;-69
2021/12/14 11:34:35;;;;;;;44.47;29.55;;;11.90;80.80;;;;;;4956242;28;92329;-69
2021/12/14 11:37:08;;;;;;;47.17;28.85;;;12.00;80.90;;;;;;4956640;28;92360;-70
2021/12/14 11:39:41;;;;;;;47.08;30.30;;;11.90;80.90;;;;;;4954783;28;98057;-69
2021/12/14 11:42:11;;;;;;;40.50;24.90;;;11.90;81.20;;;;;;4956589;28;94087;-69
2021/12/14 11:44:41;;;;;;;45.78;29.50;;;11.80;81.20;;;;;;4955982;28;92417;-72
2021/12/14 11:50:16;;;;;;;44.42;28.50;;;11.90;82.30;;;;;;4954594;28;94338;-69
2021/12/14 11:53:16;;;;;;;42.85;28.05;;;11.90;81.70;;;;;;4955887;28;92883;-72
2021/12/14 11:55:51;;;;;;;41.40;26.55;;;11.90;81.50;;;;;;4956153;28;92424;-72
2021/12/14 11:58:33;;;;;;;40.97;25.95;;;11.80;81.80;;;;;;4956327;28;91805;-72
2021/12/14 12:01:32;;;;;;;38.17;25.02;;;11.80;82.10;;;;;;4956174;28;92990;-72
2021/12/14 12:04:02;;;;;;;37.97;26.10;;;11.80;82.10;;;;;;4954751;28;92512;-69
2021/12/14 12:09:30;;;;;;;41.78;25.73;;;11.80;82.00;;;;;;4954405;28;92479;-73
2021/12/14 12:12:03;;;;;;;38.15;24.98;;;11.80;81.80;;;;;;4955725;28;93097;-72
2021/12/14 12:14:47;;;;;;;40.27;24.40;;;11.80;81.90;;;;;;4955658;28;92940;-73
2021/12/14 12:17:19;;;;;;;34.67;23.50;;;11.80;81.80;;;;;;4955596;28;92487;-72
2021/12/14 12:20:05;;;;;;;39.80;24.65;;;11.80;82.70;;;;;;4954193;28;93846;-72
2021/12/14 12:22:35;;;;;;;37.88;25.13;;;11.80;82.10;;;;;;4954369;28;93989;-72
2021/12/14 12:25:07;;;;;;;36.83;25.25;;;11.70;82.10;;;;;;4955842;28;92787;-72
2021/12/14 12:27:45;;;;;;;42.75;26.20;;;11.70;82.10;;;;;;4955376;28;93270;-72
2021/12/14 12:30:55;;;;;;;39.67;25.98;;;11.70;82.10;;;;;;4954368;28;92441;-70
2021/12/14 12:33:20;;;;;;;35.08;23.08;;;11.70;82.10;;;;;;4953799;28;95583;-70
2021/12/14 12:35:53;;;;;;;34.42;22.58;;;11.70;82.20;;;;;;4953980;28;95240;-70
2021/12/14 12:38:23;;;;;;;35.77;23.50;;;11.70;82.40;;;;;;4955742;28;92615;-70
2021/12/14 12:41:01;;;;;;;39.72;23.98;;;11.60;82.50;;;;;;4955339;28;92451;-69
2021/12/14 12:43:48;;;;;;;35.42;23.45;;;11.70;82.30;;;;;;4955478;28;92359;-69
2021/12/14 12:46:21;;;;;;;39.13;24.42;;;11.70;82.40;;;;;;4953801;28;94104;-69
2021/12/14 12:48:54;;;;;;;38.15;22.90;;;11.70;82.50;;;;;;4953938;28;92504;-69
2021/12/14 12:51:45;;;;;;;39.10;23.92;;;11.70;82.60;;;;;;4954370;28;91746;-69
2021/12/14 12:54:26;;;;;;;41.83;24.50;;;11.70;82.60;;;;;;4955556;28;93047;-69
2021/12/14 12:57:13;;;;;;;41.53;24.45;;;11.70;82.60;;;;;;4955169;28;93082;-70
2021/12/14 13:00:09;;;;;;;39.00;22.65;;;11.70;82.40;;;;;;4954056;28;95470;-72
2021/12/14 13:02:51;;;;;;;38.92;22.83;;;11.70;82.70;;;;;;4955376;28;92439;-72
2021/12/14 13:05:18;;;;;;;32.42;21.65;;;11.70;82.70;;;;;;4955337;28;93038;-72
2021/12/14 13:07:52;;;;;;;34.47;22.63;;;11.70;82.70;;;;;;4955005;28;93028;-72
2021/12/14 13:10:46;;;;;;;35.25;21.75;;;11.70;82.70;;;;;;4954098;28;92326;-72
2021/12/14 13:13:26;;;;;;;34.95;21.48;;;11.70;82.70;;;;;;4953478;28;92441;-72
2021/12/14 13:15:59;;;;;;;34.70;21.17;;;11.70;82.60;;;;;;4956827;28;94298;-72
2021/12/14 13:18:32;;;;;;;35.38;22.88;;;11.70;82.70;;;;;;4957521;28;94003;-72
2021/12/14 13:21:10;;;;;;;32.47;21.40;;;11.70;82.50;;;;;;4958604;28;92412;-72
2021/12/14 13:23:50;;;;;;;31.98;19.83;;;11.80;82.70;;;;;;4956066;28;92517;-69
2021/12/14 13:26:29;;;;;;;31.77;19.63;;;11.80;82.40;;;;;;4956975;28;97618;-70
2021/12/14 13:29:01;;;;;;;30.83;18.88;;;11.80;82.40;;;;;;4958036;28;95242;-69
2021/12/14 13:31:36;;;;;;;30.38;19.83;;;11.80;82.50;;;;;;4958544;28;92398;-69
2021/12/14 13:34:08;;;;;;;31.20;19.15;;;11.80;82.90;;;;;;4958146;28;93215;-69
2021/12/14 13:36:36;;;;;;;33.00;20.92;;;11.80;82.70;;;;;;4958130;28;93278;-69
2021/12/14 13:39:06;;;;;;;32.15;19.42;;;11.80;82.70;;;;;;4957743;28;100170;-70
2021/12/14 13:41:58;;;;;;;27.80;17.45;;;11.80;82.70;;;;;;4958033;28;92440;-70
2021/12/14 13:44:26;;;;;;;31.35;20.30;;;11.90;82.70;;;;;;4958484;28;91572;-70
2021/12/14 13:46:54;;;;;;;35.50;20.42;;;11.80;83.00;;;;;;4957935;28;93036;-69
2021/12/14 13:49:21;;;;;;;36.35;20.73;;;11.70;83.00;;;;;;4958084;28;93000;-69